Poranga, Brazil
Current Conditions -  °F | °C
As of 9:00 PM on Friday 24 Oct 2014 (Local Time) from SBTE Reporting Station
Scattered Clouds Scattered Clouds  
Wind Chill: 88°   Ceiling: Unl
Heat Index: 90°   Visibility: 6mi
Dew Point: 66°   Wind: 0mph
Humidity: 49%   Direction: NA
Pressure: 29.77"   Gusts: NA
Location:  4.74°S, 40.93°W
Report Text: SBTE 250000Z 00000KT 9999 FEW033 SCT100 31/19 Q1008
Loading
Personal Weather Stations






























Interactive Weather Map
Tropical Storm Tracking
New forecast layout! Learn more

10-Day Weather Forecast

Advertisements
Track Severe Weather on mobile